createdAt,value
2023-03-22T00:00:20.179Z,11.71
2023-03-22T00:03:24.389Z,11.71
2023-03-22T00:06:27.657Z,11.71
2023-03-22T00:09:30.883Z,11.72
2023-03-22T00:12:34.699Z,11.73
2023-03-22T00:15:37.417Z,11.72
2023-03-22T00:18:40.467Z,11.73
2023-03-22T00:21:42.882Z,11.72
2023-03-22T00:24:45.671Z,11.73
2023-03-22T00:27:49.461Z,11.74
2023-03-22T00:30:54.484Z,11.73
2023-03-22T00:33:56.964Z,11.73
2023-03-22T00:36:59.530Z,11.73
2023-03-22T00:40:02.031Z,11.74
2023-03-22T00:43:05.891Z,11.73
2023-03-22T00:46:08.571Z,11.73
2023-03-22T00:49:11.163Z,11.73
2023-03-22T00:52:13.836Z,11.73
2023-03-22T00:55:16.460Z,11.73
2023-03-22T00:58:20.821Z,11.73
2023-03-22T01:01:23.424Z,11.72
2023-03-22T01:04:26.823Z,11.73
2023-03-22T01:07:29.388Z,11.72
2023-03-22T01:10:31.982Z,11.71
2023-03-22T01:13:38.300Z,11.72
2023-03-22T01:16:40.902Z,11.73
2023-03-22T01:19:43.866Z,11.74
2023-03-22T01:22:46.616Z,11.73
2023-03-22T01:25:49.054Z,11.73
2023-03-22T01:28:52.905Z,11.73
2023-03-22T01:31:55.804Z,11.73
2023-03-22T01:34:58.265Z,11.72
2023-03-22T01:38:00.861Z,11.73
2023-03-22T01:41:03.288Z,11.72
2023-03-22T01:44:13.605Z,11.73
2023-03-22T01:47:16.440Z,11.71
2023-03-22T01:50:19.878Z,11.70
2023-03-22T01:53:25.242Z,11.70
2023-03-22T01:56:31.322Z,11.69
2023-03-22T01:59:35.490Z,11.69
2023-03-22T02:02:38.276Z,11.70
2023-03-22T02:05:41.901Z,11.69
2023-03-22T02:08:45.415Z,11.69
2023-03-22T02:11:53.002Z,11.66
2023-03-22T02:15:09.583Z,11.65
2023-03-22T02:18:32.204Z,11.67
2023-03-22T02:22:09.888Z,11.66
2023-03-22T02:25:33.317Z,11.67
2023-03-22T02:28:45.724Z,11.68
2023-03-22T02:32:15.704Z,11.68
2023-03-22T02:35:43.952Z,11.69
2023-03-22T02:39:15.406Z,11.68
2023-03-22T02:42:41.911Z,11.69
2023-03-22T02:45:48.525Z,11.68
2023-03-22T02:49:01.285Z,11.69
2023-03-22T02:52:17.573Z,11.68
2023-03-22T02:55:27.974Z,11.68
2023-03-22T02:58:37.141Z,11.68
2023-03-22T03:01:44.382Z,11.65
2023-03-22T03:04:50.471Z,11.67
2023-03-22T03:07:57.393Z,11.64
2023-03-22T03:11:01.339Z,11.62
2023-03-22T03:14:03.825Z,11.61
2023-03-22T03:17:18.857Z,11.62
2023-03-22T03:20:34.434Z,11.60
2023-03-22T03:23:46.635Z,11.62
2023-03-22T03:26:57.487Z,11.64
2023-03-22T03:30:04.910Z,11.64
2023-03-22T03:33:12.086Z,11.63
2023-03-22T03:36:18.862Z,11.64
2023-03-22T03:39:25.862Z,11.67
2023-03-22T03:42:31.412Z,11.67
2023-03-22T03:45:35.716Z,11.64
2023-03-22T03:48:41.179Z,11.64
2023-03-22T03:51:49.062Z,11.65
2023-03-22T03:54:53.842Z,11.67
2023-03-22T03:57:57.749Z,11.68
2023-03-22T04:01:00.501Z,11.67
2023-03-22T04:04:03.214Z,11.67
2023-03-22T04:07:07.082Z,11.64
2023-03-22T04:10:10.088Z,11.63
2023-03-22T04:13:14.295Z,11.65
2023-03-22T04:16:16.931Z,11.67
2023-03-22T04:19:20.120Z,11.67
2023-03-22T04:22:23.548Z,11.65
2023-03-22T04:25:29.979Z,11.69
2023-03-22T04:28:34.420Z,11.69
2023-03-22T04:31:37.772Z,11.68
2023-03-22T04:34:40.520Z,11.69
2023-03-22T04:37:43.977Z,11.69
2023-03-22T04:40:46.858Z,11.71
2023-03-22T04:43:51.097Z,11.70
2023-03-22T04:46:53.527Z,11.69
2023-03-22T04:49:56.822Z,11.68
2023-03-22T04:52:59.400Z,11.65
2023-03-22T04:56:05.511Z,11.68
2023-03-22T04:59:10.798Z,11.69
2023-03-22T05:02:13.372Z,11.64
2023-03-22T05:05:16.333Z,11.68
2023-03-22T05:08:18.836Z,11.67
2023-03-22T05:11:22.012Z,11.63
2023-03-22T05:14:25.949Z,11.63
2023-03-22T05:17:28.601Z,11.60
2023-03-22T05:20:31.514Z,11.61
2023-03-22T05:23:34.078Z,11.63
2023-03-22T05:26:38.012Z,11.65
2023-03-22T05:29:45.108Z,11.62
2023-03-22T05:32:49.667Z,11.59
2023-03-22T05:35:54.527Z,11.60
2023-03-22T05:38:57.316Z,11.64
2023-03-22T05:41:59.881Z,11.64
2023-03-22T05:45:04.716Z,11.68
2023-03-22T05:48:08.124Z,11.66
2023-03-22T05:51:13.504Z,11.68
2023-03-22T05:54:15.973Z,11.68
2023-03-22T05:57:18.502Z,11.68
2023-03-22T06:00:23.960Z,11.70
2023-03-22T06:03:26.820Z,11.69
2023-03-22T06:06:29.287Z,11.70
2023-03-22T06:09:31.989Z,11.70
2023-03-22T06:12:35.568Z,11.71
2023-03-22T06:15:39.198Z,11.69
2023-03-22T06:18:41.947Z,11.70
2023-03-22T06:21:44.448Z,11.71
2023-03-22T06:24:47.006Z,11.71
2023-03-22T06:27:49.526Z,11.70
2023-03-22T06:30:54.231Z,11.71
2023-03-22T06:33:57.006Z,11.71
2023-03-22T06:36:59.495Z,11.71
2023-03-22T06:40:02.053Z,11.72
2023-03-22T06:43:07.130Z,11.72
2023-03-22T06:46:11.604Z,11.72
2023-03-22T06:49:14.305Z,11.72
2023-03-22T06:52:17.144Z,11.72
2023-03-22T06:55:19.747Z,11.72
2023-03-22T06:58:22.230Z,11.71
2023-03-22T07:01:26.544Z,11.72
2023-03-22T07:04:29.149Z,11.73
2023-03-22T07:07:31.992Z,11.72
2023-03-22T07:10:34.531Z,11.72
2023-03-22T07:13:37.144Z,11.72
2023-03-22T07:16:40.960Z,11.71
2023-03-22T07:19:43.481Z,11.71
2023-03-22T07:22:46.398Z,11.71
2023-03-22T07:25:49.398Z,11.70
2023-03-22T07:28:51.945Z,11.69
2023-03-22T07:31:56.152Z,11.69
2023-03-22T07:34:58.710Z,11.69
2023-03-22T07:38:02.005Z,11.69
2023-03-22T07:41:04.794Z,11.70
2023-03-22T07:44:17.256Z,11.68
2023-03-22T07:47:37.721Z,11.69
2023-03-22T07:50:42.854Z,11.67
2023-03-22T07:53:45.662Z,11.68
2023-03-22T07:56:48.869Z,11.69
2023-03-22T07:59:51.565Z,11.70
2023-03-22T08:02:55.623Z,11.68
2023-03-22T08:06:04.676Z,11.65
2023-03-22T08:09:09.377Z,11.67
2023-03-22T08:12:12.239Z,11.65
2023-03-22T08:15:14.945Z,11.69
2023-03-22T08:18:21.257Z,11.68
2023-03-22T08:21:23.782Z,11.65
2023-03-22T08:24:26.575Z,11.66
2023-03-22T08:27:29.454Z,11.69
2023-03-22T08:30:31.948Z,11.73
2023-03-22T08:33:36.512Z,11.75
2023-03-22T08:36:40.131Z,11.77
2023-03-22T08:39:43.957Z,11.77
2023-03-22T08:42:46.598Z,11.77
2023-03-22T08:45:49.110Z,11.78
2023-03-22T08:49:02.721Z,11.79
2023-03-22T08:52:07.688Z,11.77
2023-03-22T08:55:11.488Z,11.75
2023-03-22T08:58:14.766Z,11.74
2023-03-22T09:01:21.311Z,11.75
2023-03-22T09:04:26.255Z,11.74
2023-03-22T09:07:30.006Z,11.74
2023-03-22T09:10:33.037Z,11.74
2023-03-22T09:13:35.900Z,11.74
2023-03-22T09:16:38.583Z,11.73
2023-03-22T09:19:42.627Z,11.75
2023-03-22T09:22:45.176Z,11.74
2023-03-22T09:25:48.724Z,11.74
2023-03-22T09:28:53.720Z,11.75
2023-03-22T09:31:56.246Z,11.75
2023-03-22T09:35:00.362Z,11.75
2023-03-22T09:38:03.578Z,11.76
2023-03-22T09:41:12.210Z,11.76
2023-03-22T09:44:19.816Z,11.77
2023-03-22T09:47:43.903Z,11.77
2023-03-22T09:50:52.432Z,11.79
2023-03-22T09:53:55.200Z,11.81
2023-03-22T09:57:03.243Z,11.84
2023-03-22T10:00:16.808Z,11.88
2023-03-22T10:03:30.389Z,11.89
2023-03-22T10:06:34.368Z,11.91
2023-03-22T10:09:43.976Z,11.91
2023-03-22T10:12:54.325Z,11.93
2023-03-22T10:16:00.004Z,11.96
2023-03-22T10:19:11.696Z,11.99
2023-03-22T10:22:18.342Z,11.97
2023-03-22T10:25:25.192Z,11.93
2023-03-22T10:28:32.584Z,11.88
2023-03-22T10:31:35.769Z,11.83
2023-03-22T10:34:38.326Z,11.82
2023-03-22T10:37:45.088Z,11.84
2023-03-22T10:40:50.387Z,11.80
2023-03-22T10:43:56.687Z,11.79
2023-03-22T10:47:07.259Z,11.81
2023-03-22T10:50:17.509Z,11.81
2023-03-22T10:53:29.429Z,11.81
2023-03-22T10:56:32.724Z,11.80
2023-03-22T10:59:51.089Z,11.82
2023-03-22T11:02:59.250Z,11.82
2023-03-22T11:06:06.361Z,11.82
2023-03-22T11:09:17.079Z,11.82
2023-03-22T11:12:19.650Z,11.81
2023-03-22T11:15:28.836Z,11.82
2023-03-22T11:18:33.207Z,11.81
2023-03-22T11:21:36.036Z,11.80
2023-03-22T11:24:40.281Z,11.80
2023-03-22T11:27:53.089Z,11.80
2023-03-22T11:31:01.828Z,11.80
2023-03-22T11:34:04.590Z,11.79
2023-03-22T11:37:09.677Z,11.78
2023-03-22T11:40:18.554Z,11.78
2023-03-22T11:46:52.831Z,11.78
2023-03-22T11:54:18.589Z,11.77
2023-03-22T11:58:26.250Z,11.80
2023-03-22T12:14:49.447Z,11.79
2023-03-22T12:17:59.438Z,11.80
2023-03-22T12:21:03.057Z,11.80
2023-03-22T12:24:19.905Z,11.81
2023-03-22T12:27:27.749Z,11.80
2023-03-22T12:30:32.912Z,11.81
2023-03-22T12:33:41.592Z,11.81
2023-03-22T12:36:47.637Z,11.82
2023-03-22T12:39:55.625Z,11.82
2023-03-22T12:43:07.298Z,11.84
2023-03-22T12:46:16.218Z,11.84
2023-03-22T12:49:24.593Z,11.84
2023-03-22T12:52:44.762Z,11.83
2023-03-22T12:55:49.956Z,11.84
2023-03-22T12:58:58.075Z,11.83
2023-03-22T13:02:05.917Z,11.83
2023-03-22T13:05:11.992Z,11.83
2023-03-22T13:08:19.626Z,11.83
2023-03-22T13:11:25.599Z,11.83
2023-03-22T13:14:58.743Z,11.83
2023-03-22T13:18:01.868Z,11.81
2023-03-22T13:21:13.534Z,11.80
2023-03-22T13:24:26.364Z,11.80
2023-03-22T13:27:37.891Z,11.81
2023-03-22T13:30:52.576Z,11.81
2023-03-22T13:33:55.409Z,11.80
2023-03-22T13:36:58.805Z,11.80
2023-03-22T13:40:04.490Z,11.82
2023-03-22T13:43:29.665Z,11.82
2023-03-22T13:46:50.378Z,11.83
2023-03-22T13:49:59.284Z,11.82
2023-03-22T13:53:06.060Z,11.82
2023-03-22T13:56:12.314Z,11.81
2023-03-22T13:59:20.856Z,11.82
2023-03-22T14:02:30.297Z,11.82
2023-03-22T14:05:37.548Z,11.82
2023-03-22T14:08:42.896Z,11.81
2023-03-22T14:11:48.790Z,11.83
2023-03-22T14:14:56.517Z,11.84
2023-03-22T14:18:04.062Z,11.83
2023-03-22T14:21:10.487Z,11.83
